Time;durP1;ratioP1;P1;durP2;ratioP2;P2;SDS_P1;SDS_P2;PMS_P1;PMS_P2;Temp;Humidity;BMP_temperature;BMP_pressure;BME280_temperature;BME280_humidity;BME280_pressure;Samples;Min_cycle;Max_cycle;Signal;HPM_P1;HPM_P2
2022/09/24 00:01:34;;;;;;;6.90;4.77;;;16.90;71.80;;;-142.21;99.75;112049.66;5053724;28;20468;-69
2022/09/24 00:04:04;;;;;;;4.90;4.37;;;16.90;71.80;;;-142.21;99.98;112049.66;5053942;28;20935;-70
2022/09/24 00:06:40;;;;;;;6.77;4.27;;;16.90;72.00;;;-142.21;99.80;112049.66;5053947;28;20559;-70
2022/09/24 00:09:09;;;;;;;5.57;4.40;;;16.90;72.20;;;-142.21;99.99;112049.66;5053067;28;20441;-70
2022/09/24 00:11:36;;;;;;;5.07;4.33;;;16.90;72.10;;;-142.21;100.00;112049.66;5053969;28;20466;-71
2022/09/24 00:14:05;;;;;;;4.50;4.10;;;16.90;72.90;;;-142.21;100.00;112049.66;5053823;28;20450;-71
2022/09/24 00:16:34;;;;;;;4.57;4.03;;;16.90;72.20;;;-142.21;100.00;112049.66;5053553;28;20960;-71
2022/09/24 00:19:04;;;;;;;4.40;3.60;;;16.90;72.30;;;-142.21;100.00;112049.66;5054029;28;20452;-70
2022/09/24 00:21:34;;;;;;;4.33;3.93;;;16.90;72.10;;;-142.21;99.93;112049.66;5062575;28;20451;-70
2022/09/24 00:24:08;;;;;;;5.17;4.13;;;16.80;72.00;;;-142.21;99.76;112049.66;5061449;28;20447;-70
2022/09/24 00:26:50;;;;;;;4.60;4.20;;;16.80;72.00;;;-142.21;99.20;112049.66;5053218;28;20528;-69
2022/09/24 00:29:21;;;;;;;5.10;4.27;;;16.80;72.00;;;-142.21;99.53;112049.66;5052706;28;20444;-69
2022/09/24 00:31:50;;;;;;;6.77;4.00;;;16.80;72.70;;;-142.21;99.73;112049.66;5053064;28;20451;-70
2022/09/24 00:34:21;;;;;;;6.27;4.27;;;16.80;72.20;;;-142.21;99.85;112049.66;5063885;28;20905;-70
2022/09/24 00:36:48;;;;;;;5.57;4.23;;;16.80;72.40;;;-142.21;99.44;112049.66;5053047;28;20445;-70
2022/09/24 00:39:17;;;;;;;7.97;4.77;;;16.70;72.10;;;-142.21;99.53;112049.66;5052632;28;20532;-71
2022/09/24 00:41:46;;;;;;;4.23;3.83;;;16.80;72.30;;;-142.21;99.42;112049.66;5053060;28;20444;-71
2022/09/24 00:44:51;;;;;;;4.20;3.80;;;16.80;72.30;;;-142.21;99.52;112049.66;5052561;28;20539;-71
2022/09/24 00:47:39;;;;;;;5.10;4.30;;;16.80;72.40;;;-142.21;99.78;112049.66;5050946;28;20448;-71
2022/09/24 00:50:18;;;;;;;4.70;4.20;;;16.70;72.60;;;-142.21;99.66;112049.66;5032584;28;20434;-70
2022/09/24 00:52:51;;;;;;;5.07;4.43;;;16.70;72.70;;;-142.21;100.00;112049.66;5050164;28;20479;-70
2022/09/24 00:55:36;;;;;;;7.87;5.40;;;16.70;72.70;;;-142.21;100.00;112049.66;5006694;28;20449;-70
2022/09/24 00:58:07;;;;;;;19.33;13.33;;;16.70;73.00;;;-142.21;100.00;112049.66;5035781;28;20447;-70
2022/09/24 01:00:37;;;;;;;17.53;13.87;;;16.70;72.70;;;-142.21;100.00;112049.66;5052598;28;20444;-70
2022/09/24 01:03:09;;;;;;;10.30;7.27;;;16.60;72.60;;;-142.21;100.00;112049.66;5056427;28;20476;-70
2022/09/24 01:05:37;;;;;;;6.97;4.67;;;16.60;72.90;;;-142.21;100.00;112049.66;5052487;28;20479;-71
2022/09/24 01:08:06;;;;;;;5.17;4.67;;;16.60;72.60;;;-142.21;100.00;112049.66;5052911;28;20448;-70
2022/09/24 01:10:53;;;;;;;6.47;4.33;;;16.60;72.80;;;-142.21;100.00;112049.66;5052705;28;20459;-71
2022/09/24 01:13:51;;;;;;;6.70;4.50;;;16.60;73.00;;;-142.21;100.00;112049.66;5052301;28;20515;-69
2022/09/24 01:16:33;;;;;;;5.40;4.63;;;16.60;73.00;;;-142.21;100.00;112049.66;5052370;28;20476;-70
2022/09/24 01:19:16;;;;;;;6.23;5.13;;;16.50;72.90;;;-142.21;100.00;112049.66;5057774;28;20514;-70
2022/09/24 01:21:55;;;;;;;5.80;4.97;;;16.50;73.40;;;-142.21;100.00;112049.66;5050952;28;20447;-71
2022/09/24 01:24:58;;;;;;;6.67;4.53;;;16.50;72.60;;;-142.21;100.00;112049.66;5003239;28;20445;-69
2022/09/24 01:27:55;;;;;;;5.70;4.27;;;16.50;72.90;;;-142.21;100.00;112049.66;5032378;28;20876;-70
2022/09/24 01:30:31;;;;;;;7.57;4.90;;;16.40;72.60;;;-142.21;100.00;112049.66;5040351;28;20440;-70
2022/09/24 01:33:04;;;;;;;5.43;4.30;;;16.40;72.60;;;-142.21;100.00;112049.66;5059834;28;20522;-68
2022/09/24 01:35:36;;;;;;;6.57;4.73;;;16.40;72.50;;;-142.21;100.00;112049.66;5052826;28;20435;-70
2022/09/24 01:38:11;;;;;;;5.13;4.70;;;16.40;72.50;;;-142.21;100.00;112049.66;5051798;28;20912;-71
2022/09/24 01:40:42;;;;;;;5.00;4.50;;;16.40;72.40;;;-142.21;100.00;112049.66;5053866;28;20998;-70
2022/09/24 01:43:13;;;;;;;7.23;4.63;;;16.40;72.60;;;-142.21;100.00;112049.66;5063981;28;20506;-70
2022/09/24 01:45:42;;;;;;;4.43;4.03;;;16.30;72.50;;;-142.21;100.00;112049.66;5051825;28;20483;-69
2022/09/24 01:48:09;;;;;;;4.53;4.00;;;16.30;72.30;;;-142.21;100.00;112049.66;5051443;28;20443;-70
2022/09/24 01:50:46;;;;;;;4.77;4.33;;;16.30;72.50;;;-142.21;100.00;112049.66;5051991;28;20446;-69
2022/09/24 01:53:20;;;;;;;4.57;4.17;;;16.30;72.70;;;-142.21;100.00;112049.66;5051450;28;20428;-70
2022/09/24 01:55:53;;;;;;;6.43;4.30;;;16.30;72.90;;;-142.21;100.00;112049.66;5051870;28;20437;-71
2022/09/24 01:58:29;;;;;;;7.50;4.30;;;16.30;72.80;;;-142.21;100.00;112049.66;5060730;28;20435;-70
2022/09/24 02:01:05;;;;;;;6.70;5.00;;;16.30;73.00;;;-142.21;100.00;112049.66;5027474;28;20519;-70
2022/09/24 02:03:42;;;;;;;4.20;3.80;;;16.30;73.80;;;-142.21;100.00;112049.66;5044503;28;20940;-70
2022/09/24 02:06:15;;;;;;;4.90;4.40;;;16.20;73.10;;;-142.21;100.00;112049.66;5051000;28;20814;-70
2022/09/24 02:08:46;;;;;;;5.00;4.37;;;16.20;73.20;;;-142.21;100.00;112049.66;5052487;28;20467;-69
2022/09/24 02:11:20;;;;;;;7.03;4.17;;;16.20;73.10;;;-142.21;100.00;112049.66;5051831;28;20769;-70
2022/09/24 02:13:59;;;;;;;7.23;4.37;;;16.20;73.00;;;-142.21;100.00;112049.66;5061702;28;20535;-71
2022/09/24 02:16:38;;;;;;;5.37;4.13;;;16.20;73.10;;;-142.21;100.00;112049.66;5017051;28;20440;-70
2022/09/24 02:19:11;;;;;;;5.73;4.50;;;16.10;73.10;;;-142.21;100.00;112049.66;5051622;28;20447;-70
2022/09/24 02:21:41;;;;;;;4.70;3.93;;;16.20;73.20;;;-142.21;100.00;112049.66;5052052;28;20475;-69
2022/09/24 02:24:16;;;;;;;6.03;4.73;;;16.10;73.00;;;-142.21;100.00;112049.66;5051626;28;20978;-70
2022/09/24 02:26:44;;;;;;;5.20;4.67;;;16.20;73.30;;;-142.21;100.00;112049.66;5052228;28;20473;-70
2022/09/24 02:29:12;;;;;;;5.10;4.23;;;16.20;73.20;;;-142.21;100.00;112049.66;5056898;28;20440;-70
2022/09/24 02:31:46;;;;;;;4.90;4.40;;;16.10;73.10;;;-142.21;100.00;112049.66;5052094;28;20544;-70
2022/09/24 02:34:21;;;;;;;4.80;4.40;;;16.10;73.10;;;-142.21;100.00;112049.66;5050487;28;20428;-69
2022/09/24 02:36:49;;;;;;;6.07;4.73;;;16.20;73.10;;;-142.21;100.00;112049.66;5051440;28;20427;-71
2022/09/24 02:39:17;;;;;;;5.10;4.57;;;16.10;72.90;;;-142.21;100.00;112049.66;5051168;28;20467;-70
2022/09/24 02:41:47;;;;;;;4.90;4.27;;;16.20;73.20;;;-142.21;100.00;112049.66;5051552;28;20451;-70
2022/09/24 02:44:15;;;;;;;5.30;4.37;;;16.10;73.30;;;-142.21;100.00;112049.66;5052446;28;20924;-70
2022/09/24 02:46:43;;;;;;;5.07;4.30;;;16.10;73.30;;;-142.21;100.00;112049.66;5055186;28;20490;-70
2022/09/24 02:49:11;;;;;;;5.00;4.00;;;16.10;73.70;;;-142.21;100.00;112049.66;5055756;28;20444;-70
2022/09/24 02:51:38;;;;;;;9.87;4.30;;;16.10;73.50;;;-142.21;100.00;112049.66;5055481;28;20527;-70
2022/09/24 02:54:06;;;;;;;5.17;4.10;;;16.00;73.50;;;-142.21;100.00;112049.66;5055339;28;20452;-70
2022/09/24 02:56:34;;;;;;;6.43;4.50;;;16.00;73.70;;;-142.21;100.00;112049.66;5054761;28;20527;-69
2022/09/24 02:59:03;;;;;;;6.17;3.97;;;15.90;73.60;;;-142.21;100.00;112049.66;5055266;28;20440;-69
2022/09/24 03:01:32;;;;;;;4.90;4.20;;;15.90;73.60;;;-142.21;100.00;112049.66;5053839;28;20582;-69
2022/09/24 03:04:01;;;;;;;5.60;4.37;;;15.90;73.60;;;-142.21;100.00;112049.66;5056649;28;20444;-70
2022/09/24 03:06:29;;;;;;;5.37;4.50;;;15.90;74.20;;;-142.21;100.00;112049.66;5054499;28;20491;-70
2022/09/24 03:08:56;;;;;;;5.53;4.43;;;15.90;74.10;;;-142.21;100.00;112049.66;5055278;28;20479;-69
2022/09/24 03:11:23;;;;;;;4.70;4.30;;;15.90;73.80;;;-142.21;100.00;112049.66;5054842;28;20444;-70
2022/09/24 03:13:51;;;;;;;4.67;4.27;;;15.90;73.80;;;-142.21;100.00;112049.66;5055324;28;20478;-69
2022/09/24 03:16:19;;;;;;;4.50;4.10;;;15.90;73.80;;;-142.21;100.00;112049.66;5059662;28;20440;-69
2022/09/24 03:18:47;;;;;;;5.80;4.07;;;15.90;73.90;;;-142.21;100.00;112049.66;5054901;28;20869;-69
2022/09/24 03:21:19;;;;;;;5.10;4.20;;;15.90;74.10;;;-142.21;100.00;112049.66;5054515;28;20443;-70
2022/09/24 03:23:46;;;;;;;4.80;4.17;;;15.90;74.00;;;-142.21;100.00;112049.66;5054795;28;20431;-70
2022/09/24 03:26:14;;;;;;;8.70;4.23;;;15.90;74.20;;;-142.21;100.00;112049.66;5054834;28;20484;-70
2022/09/24 03:28:41;;;;;;;4.60;4.10;;;15.90;74.20;;;-142.21;100.00;112049.66;5054491;28;20448;-70
2022/09/24 03:31:08;;;;;;;7.13;4.50;;;15.90;74.20;;;-142.21;100.00;112049.66;5054296;28;20928;-70
2022/09/24 03:33:38;;;;;;;4.90;4.20;;;15.80;74.20;;;-142.21;100.00;112049.66;5054098;28;20535;-70
2022/09/24 03:36:08;;;;;;;4.43;4.03;;;15.80;74.20;;;-142.21;100.00;112049.66;5034493;28;20429;-70
2022/09/24 03:38:41;;;;;;;4.80;4.30;;;15.80;74.20;;;-142.21;100.00;112049.66;5044541;28;20458;-71
2022/09/24 03:41:10;;;;;;;4.80;4.30;;;15.80;74.50;;;-142.21;100.00;112049.66;5054647;28;20440;-70
2022/09/24 03:43:38;;;;;;;4.70;4.30;;;15.70;74.20;;;-142.21;100.00;112049.66;5053956;28;20448;-69
2022/09/24 03:46:07;;;;;;;5.17;4.47;;;15.80;74.30;;;-142.21;100.00;112049.66;5054105;28;20874;-69
2022/09/24 03:48:36;;;;;;;4.50;4.07;;;15.80;74.40;;;-142.21;100.00;112049.66;5053520;28;20451;-69
2022/09/24 03:51:08;;;;;;;5.40;4.10;;;15.70;74.40;;;-142.21;100.00;112049.66;5054015;28;20963;-69
2022/09/24 03:53:37;;;;;;;5.17;4.13;;;15.70;74.40;;;-142.21;100.00;112049.66;5053381;28;20445;-70
2022/09/24 03:56:06;;;;;;;6.20;4.43;;;15.70;74.40;;;-142.21;100.00;112049.66;5053970;28;20444;-71
2022/09/24 03:58:37;;;;;;;7.60;4.37;;;15.70;74.20;;;-142.21;100.00;112049.66;5053764;28;20441;-69
2022/09/24 04:01:05;;;;;;;5.47;4.50;;;15.70;74.10;;;-142.21;100.00;112049.66;5054475;28;20488;-70
2022/09/24 04:03:32;;;;;;;4.90;4.40;;;15.70;74.20;;;-142.21;100.00;112049.66;5053444;28;20474;-69
2022/09/24 04:06:00;;;;;;;5.30;4.30;;;15.70;74.10;;;-142.21;100.00;112049.66;5054141;28;20440;-70
2022/09/24 04:08:27;;;;;;;6.10;4.20;;;15.70;74.20;;;-142.21;100.00;112049.66;5053128;28;20959;-70
2022/09/24 04:10:56;;;;;;;6.03;4.57;;;15.70;74.10;;;-142.21;100.00;112049.66;5053816;28;20435;-70
2022/09/24 04:13:23;;;;;;;6.67;4.40;;;15.70;74.10;;;-142.21;100.00;112049.66;5053024;28;20440;-70
2022/09/24 04:15:50;;;;;;;5.17;4.67;;;15.70;74.00;;;-142.21;100.00;112049.66;5053717;28;20446;-69
2022/09/24 04:18:18;;;;;;;4.83;4.33;;;15.70;73.90;;;-142.21;100.00;112049.66;5053403;28;20459;-70
2022/09/24 04:20:45;;;;;;;5.00;4.33;;;15.70;74.50;;;-142.21;100.00;112049.66;5053251;28;20448;-71
2022/09/24 04:23:13;;;;;;;7.50;4.17;;;15.70;73.60;;;-142.21;100.00;112049.66;5053418;28;20444;-70
2022/09/24 04:25:40;;;;;;;4.60;4.20;;;15.70;73.70;;;-142.21;100.00;112049.66;5052453;28;20958;-70
2022/09/24 04:28:10;;;;;;;5.10;4.40;;;15.60;73.70;;;-142.21;100.00;112049.66;5053073;28;20803;-70
2022/09/24 04:30:38;;;;;;;5.03;4.53;;;15.60;74.00;;;-142.21;100.00;112049.66;5053044;28;20978;-70
2022/09/24 04:33:06;;;;;;;7.53;4.63;;;15.60;74.10;;;-142.21;100.00;112049.66;5053552;28;20530;-71
2022/09/24 04:35:35;;;;;;;5.47;4.20;;;15.60;74.10;;;-142.21;100.00;112049.66;5052791;28;20855;-69
2022/09/24 04:38:04;;;;;;;6.90;4.57;;;15.70;74.30;;;-142.21;100.00;112049.66;5053395;28;20440;-69
2022/09/24 04:40:32;;;;;;;5.70;4.20;;;15.60;74.30;;;-142.21;100.00;112049.66;5052206;28;20451;-70
2022/09/24 04:42:59;;;;;;;4.50;4.10;;;15.60;74.20;;;-142.21;100.00;112049.66;5052957;28;20534;-69
2022/09/24 04:45:27;;;;;;;6.50;4.73;;;15.60;74.20;;;-142.21;100.00;112049.66;5060858;28;20443;-69
2022/09/24 04:47:56;;;;;;;4.57;4.17;;;15.60;74.20;;;-142.21;100.00;112049.66;5060206;28;20579;-70
2022/09/24 04:50:25;;;;;;;7.27;4.50;;;15.60;74.50;;;-142.21;100.00;112049.66;5052757;28;20448;-69
2022/09/24 04:52:52;;;;;;;5.30;4.80;;;15.50;74.30;;;-142.21;100.00;112049.66;5052805;28;20536;-70
2022/09/24 04:55:19;;;;;;;6.50;4.20;;;15.60;74.40;;;-142.21;100.00;112049.66;5052918;28;20447;-69
2022/09/24 04:57:47;;;;;;;4.87;4.40;;;15.60;74.50;;;-142.21;100.00;112049.66;5052105;28;20979;-70
2022/09/24 05:00:20;;;;;;;4.97;4.57;;;15.60;74.40;;;-142.21;100.00;112049.66;5052919;28;20471;-69
2022/09/24 05:02:56;;;;;;;5.07;4.57;;;15.60;74.40;;;-142.21;100.00;112049.66;5052843;28;20484;-69
2022/09/24 05:05:23;;;;;;;4.80;4.40;;;15.60;74.50;;;-142.21;100.00;112049.66;5052659;28;20460;-70
2022/09/24 05:07:51;;;;;;;5.83;4.47;;;15.60;74.60;;;-142.21;100.00;112049.66;5052001;28;20486;-69
2022/09/24 05:10:21;;;;;;;4.70;4.20;;;15.60;74.90;;;-142.21;100.00;112049.66;5052881;28;20494;-69
2022/09/24 05:12:48;;;;;;;5.37;4.87;;;15.60;75.00;;;-142.21;100.00;112049.66;5052459;28;20853;-71
2022/09/24 05:15:17;;;;;;;5.27;4.77;;;15.50;74.90;;;-142.21;100.00;112049.66;5052668;28;20865;-70
2022/09/24 05:17:44;;;;;;;8.33;4.80;;;15.40;75.40;;;-142.21;100.00;112049.66;5052287;28;20447;-69
2022/09/24 05:20:14;;;;;;;8.47;4.53;;;15.40;75.30;;;-142.21;100.00;112049.66;5052390;28;20440;-70
2022/09/24 05:22:41;;;;;;;5.57;4.37;;;15.50;75.20;;;-142.21;100.00;112049.66;5051534;28;20969;-70
2022/09/24 05:25:09;;;;;;;4.97;4.50;;;15.50;75.00;;;-142.21;100.00;112049.66;5052834;28;20539;-71
2022/09/24 05:27:35;;;;;;;5.10;4.23;;;15.50;75.00;;;-142.21;100.00;112049.66;5050628;28;20499;-70
2022/09/24 05:30:14;;;;;;;5.00;4.30;;;15.50;75.00;;;-142.21;100.00;112049.66;5058801;28;20478;-69
2022/09/24 05:32:41;;;;;;;4.70;4.30;;;15.50;74.90;;;-142.21;100.00;112049.66;5051426;28;20464;-71
2022/09/24 05:35:11;;;;;;;5.67;4.83;;;15.60;74.90;;;-142.21;100.00;112049.66;5067747;28;20444;-71
2022/09/24 05:37:39;;;;;;;4.97;4.47;;;15.60;75.00;;;-142.21;100.00;112049.66;5068189;28;20525;-70
2022/09/24 05:43:01;;;;;;;7.00;5.07;;;15.60;75.00;;;-142.21;100.00;112049.66;5039071;28;20915;-69
2022/09/24 05:45:28;;;;;;;6.00;4.27;;;15.60;75.10;;;-142.21;100.00;112049.66;5051618;28;20826;-70
2022/09/24 05:47:56;;;;;;;5.17;4.50;;;15.60;75.00;;;-142.21;100.00;112049.66;5051988;28;20566;-70
2022/09/24 05:50:23;;;;;;;6.43;4.40;;;15.60;75.10;;;-142.21;100.00;112049.66;5054020;28;20439;-69
2022/09/24 05:52:51;;;;;;;5.37;4.43;;;15.60;75.20;;;-142.21;100.00;112049.66;5004098;28;20466;-70
2022/09/24 05:55:18;;;;;;;5.70;4.37;;;15.60;75.40;;;-142.21;100.00;112049.66;5052111;28;20448;-70
2022/09/24 05:57:45;;;;;;;4.53;4.03;;;15.60;75.40;;;-142.21;100.00;112049.66;5050989;28;20507;-69
2022/09/24 06:00:13;;;;;;;4.97;4.57;;;15.60;75.30;;;-142.21;100.00;112049.66;5052989;28;20543;-71
2022/09/24 06:02:40;;;;;;;5.93;4.60;;;15.60;75.40;;;-142.21;100.00;112049.66;5050825;28;20571;-69
2022/09/24 06:05:09;;;;;;;5.63;4.37;;;15.60;75.10;;;-142.21;100.00;112049.66;5051940;28;20531;-69
2022/09/24 06:07:36;;;;;;;7.53;4.70;;;15.70;75.30;;;-142.21;100.00;112049.66;5050922;28;20559;-70
2022/09/24 06:10:07;;;;;;;5.13;4.40;;;15.60;75.20;;;-142.21;100.00;112049.66;5051858;28;20536;-70
2022/09/24 06:12:34;;;;;;;5.93;4.80;;;15.60;75.50;;;-142.21;100.00;112049.66;5051188;28;20440;-69
2022/09/24 06:15:01;;;;;;;5.60;4.97;;;15.70;75.70;;;-142.21;100.00;112049.66;5052114;28;20816;-70
2022/09/24 06:17:31;;;;;;;5.10;4.60;;;15.70;75.70;;;-142.21;100.00;112049.66;5051373;28;20441;-69
2022/09/24 06:19:58;;;;;;;6.37;5.77;;;15.80;75.60;;;-142.21;100.00;112049.66;5066974;28;20440;-71
2022/09/24 06:22:25;;;;;;;6.03;5.43;;;15.80;75.60;;;-142.21;100.00;112049.66;5055004;28;20956;-69
2022/09/24 06:24:53;;;;;;;6.77;6.10;;;15.80;75.60;;;-142.21;100.00;112049.66;5055363;28;20445;-70
2022/09/24 06:27:21;;;;;;;7.67;6.97;;;15.90;75.80;;;-142.21;100.00;112049.66;5055408;28;20516;-69
2022/09/24 06:29:48;;;;;;;7.00;6.33;;;16.00;75.90;;;-142.21;100.00;112049.66;5055039;28;20483;-70
2022/09/24 06:32:16;;;;;;;7.00;5.57;;;15.90;75.50;;;-142.21;100.00;112049.66;5055884;28;20486;-70
2022/09/24 06:34:44;;;;;;;8.97;5.90;;;16.00;75.40;;;-142.21;100.00;112049.66;5062695;28;20554;-69
2022/09/24 06:37:11;;;;;;;6.33;5.73;;;16.00;75.30;;;-142.21;100.00;112049.66;5073893;28;20440;-70
2022/09/24 06:39:38;;;;;;;8.50;5.40;;;16.00;76.20;;;-142.21;100.00;112049.66;5054497;28;20532;-70
2022/09/24 06:42:05;;;;;;;6.23;4.80;;;16.10;75.80;;;-142.21;100.00;112049.66;5055633;28;20534;-71
2022/09/24 06:44:34;;;;;;;5.57;5.03;;;16.10;75.50;;;-142.21;100.00;112049.66;5054956;28;20455;-69
2022/09/24 06:47:04;;;;;;;5.63;4.73;;;16.10;75.60;;;-142.21;100.00;112049.66;5055566;28;20448;-69
2022/09/24 06:49:31;;;;;;;8.70;5.53;;;16.20;75.70;;;-142.21;100.00;112049.66;5059293;28;20545;-71
2022/09/24 06:51:58;;;;;;;7.20;5.17;;;16.20;75.60;;;-142.21;100.00;112049.66;5055685;28;20439;-70
2022/09/24 06:54:25;;;;;;;6.13;5.30;;;16.20;75.50;;;-142.21;100.00;112049.66;5054514;28;20452;-69
2022/09/24 06:56:52;;;;;;;5.93;5.33;;;16.30;75.00;;;-142.21;100.00;112049.66;5055687;28;20524;-70
2022/09/24 06:59:19;;;;;;;6.67;5.30;;;16.30;75.10;;;-142.21;100.00;112049.66;5055220;28;20466;-70
2022/09/24 07:01:48;;;;;;;6.33;5.73;;;16.30;75.20;;;-142.21;100.00;112049.66;5054556;28;20570;-69
2022/09/24 07:04:15;;;;;;;7.20;5.07;;;16.40;75.10;;;-142.21;100.00;112049.66;5063065;28;20873;-69
2022/09/24 07:09:26;;;;;;;8.50;5.43;;;16.50;75.30;;;-142.21;100.00;112049.66;5041192;28;20509;-70
2022/09/24 07:11:55;;;;;;;6.10;4.80;;;16.60;76.20;;;-142.21;100.00;112049.66;5054930;28;20451;-69
2022/09/24 07:14:22;;;;;;;5.03;4.53;;;16.60;76.00;;;-142.21;100.00;112049.66;5055064;28;20476;-69
2022/09/24 07:16:52;;;;;;;6.20;5.07;;;16.60;75.70;;;-142.21;100.00;112049.66;5054007;28;20505;-69
2022/09/24 07:19:19;;;;;;;6.13;5.27;;;16.70;75.70;;;-142.21;100.00;112049.66;5044803;28;20820;-70
2022/09/24 07:21:47;;;;;;;6.00;5.40;;;16.70;75.60;;;-142.21;100.00;112049.66;5054057;28;21417;-69
2022/09/24 07:24:14;;;;;;;6.77;4.87;;;16.80;75.50;;;-142.21;100.00;112049.66;5054081;28;20943;-70
2022/09/24 07:26:41;;;;;;;6.03;5.10;;;16.80;75.20;;;-142.21;100.00;112049.66;5054165;28;20444;-70
2022/09/24 07:29:08;;;;;;;5.60;5.00;;;16.90;75.20;;;-142.21;100.00;112049.66;5053858;28;20484;-70
2022/09/24 07:31:35;;;;;;;6.70;5.73;;;16.90;75.20;;;-142.21;100.00;112049.66;5053480;28;20452;-70
2022/09/24 07:34:07;;;;;;;6.30;5.20;;;16.90;74.80;;;-142.21;100.00;112049.66;5058373;28;20439;-70
2022/09/24 07:36:34;;;;;;;6.63;5.50;;;17.00;74.80;;;-142.21;100.00;112049.66;5059392;28;20515;-70
2022/09/24 07:39:01;;;;;;;6.93;6.23;;;17.00;74.70;;;-142.21;100.00;112049.66;5065916;28;20534;-70
2022/09/24 07:41:30;;;;;;;6.57;5.87;;;17.10;74.30;;;-142.21;100.00;112049.66;5059312;28;20452;-69
2022/09/24 07:43:57;;;;;;;8.43;5.80;;;17.20;74.60;;;-142.21;100.00;112049.66;5054257;28;20483;-70
2022/09/24 07:46:24;;;;;;;10.43;6.43;;;17.20;74.50;;;-142.21;100.00;112049.66;5054161;28;20483;-69
2022/09/24 07:48:54;;;;;;;7.23;5.93;;;17.20;73.80;;;-142.21;100.00;112049.66;5053513;28;20979;-70
2022/09/24 07:51:24;;;;;;;7.20;6.23;;;17.10;73.80;;;-142.21;100.00;112049.66;5054132;28;20527;-70
2022/09/24 07:53:52;;;;;;;7.80;6.07;;;17.20;74.10;;;-142.21;100.00;112049.66;5065818;28;20451;-70
2022/09/24 07:56:19;;;;;;;6.73;5.93;;;17.30;74.20;;;-142.21;100.00;112049.66;5056280;28;21180;-71
2022/09/24 07:58:49;;;;;;;7.10;6.40;;;17.30;73.80;;;-142.21;100.00;112049.66;5053459;28;20476;-69
2022/09/24 08:01:16;;;;;;;9.47;5.90;;;17.30;73.60;;;-142.21;100.00;112049.66;5053796;28;20480;-70
2022/09/24 08:03:45;;;;;;;8.53;6.50;;;17.30;73.20;;;-142.21;100.00;112049.66;5053247;28;20443;-70
2022/09/24 08:06:12;;;;;;;7.50;5.73;;;17.30;73.30;;;-142.21;100.00;112049.66;5053935;28;20444;-70
2022/09/24 08:08:44;;;;;;;7.20;6.50;;;17.30;73.60;;;-142.21;100.00;112049.66;5053451;28;21010;-72
2022/09/24 08:11:13;;;;;;;7.97;6.60;;;17.20;73.90;;;-142.21;100.00;112049.66;5053386;28;20476;-71
2022/09/24 08:13:40;;;;;;;7.60;6.43;;;17.30;74.30;;;-142.21;100.00;112049.66;5053434;28;20444;-71
2022/09/24 08:16:07;;;;;;;7.50;6.10;;;17.30;74.40;;;-142.21;100.00;112049.66;5054257;28;20523;-70
2022/09/24 08:18:35;;;;;;;6.73;6.03;;;17.40;75.20;;;-142.21;100.00;112049.66;5053555;28;20511;-70
2022/09/24 08:21:05;;;;;;;10.73;6.83;;;17.50;74.20;;;-142.21;100.00;112049.66;5053728;28;20467;-70
2022/09/24 08:23:33;;;;;;;6.53;5.77;;;17.60;73.70;;;-142.21;100.00;112049.66;5060741;28;20476;-70
2022/09/24 08:26:01;;;;;;;10.70;6.83;;;17.70;73.70;;;-142.21;99.81;112049.66;5052786;28;20960;-70
2022/09/24 08:28:29;;;;;;;7.17;6.47;;;17.70;73.00;;;-142.21;99.67;112049.66;5053822;28;20522;-70
2022/09/24 08:30:59;;;;;;;9.10;7.03;;;17.80;72.90;;;-142.21;99.73;112049.66;5053146;28;20448;-71
2022/09/24 08:33:26;;;;;;;8.90;6.83;;;17.80;73.10;;;-142.21;100.00;112049.66;5053510;28;20421;-70
2022/09/24 08:35:54;;;;;;;8.50;6.60;;;17.90;73.40;;;-142.21;99.45;112049.66;5052376;28;20468;-71
2022/09/24 08:38:21;;;;;;;8.37;7.10;;;17.90;73.10;;;-142.21;98.83;112049.66;5077050;28;20524;-70
2022/09/24 08:40:59;;;;;;;19.33;8.53;;;18.00;72.80;;;-142.21;97.85;112049.66;5051895;28;20859;-71
2022/09/24 08:43:45;;;;;;;10.47;7.87;;;18.00;72.20;;;-142.21;96.73;112049.66;5051213;28;20193;-70
2022/09/24 08:49:10;;;;;;;11.67;6.87;;;18.30;71.70;;;-142.21;96.12;112049.66;5050660;28;20472;-71
2022/09/24 08:51:50;;;;;;;8.23;7.43;;;18.30;71.10;;;-142.21;95.10;112049.66;5049833;28;20523;-69
2022/09/24 08:54:22;;;;;;;8.70;7.80;;;18.30;70.50;;;-142.21;94.67;112049.66;5054401;28;20436;-70
2022/09/24 08:56:51;;;;;;;7.87;7.03;;;18.40;70.30;;;-142.21;94.43;112049.66;5052487;28;20854;-69
2022/09/24 08:59:30;;;;;;;8.53;7.50;;;18.40;70.00;;;-142.21;94.81;112049.66;5053386;28;20198;-70
2022/09/24 09:02:28;;;;;;;7.83;7.07;;;18.40;70.10;;;-142.21;95.26;112049.66;5052189;28;20486;-71
2022/09/24 09:05:09;;;;;;;9.23;7.30;;;18.50;70.20;;;-142.21;95.12;112049.66;5016824;28;20528;-70
2022/09/24 09:07:49;;;;;;;10.83;7.90;;;18.50;70.10;;;-142.21;93.91;112049.66;5052189;28;20431;-70
2022/09/24 09:10:26;;;;;;;8.20;7.40;;;18.50;69.40;;;-142.21;94.67;112049.66;5037894;28;20428;-70
2022/09/24 09:12:57;;;;;;;8.80;6.93;;;18.50;69.60;;;-142.21;95.60;112049.66;5051994;28;20448;-71
2022/09/24 09:15:31;;;;;;;7.97;6.73;;;18.50;70.80;;;-142.21;95.07;112049.66;5052926;28;20198;-70
2022/09/24 09:18:04;;;;;;;7.57;6.80;;;18.60;69.80;;;-142.21;95.22;112049.66;5053053;28;20426;-70
2022/09/24 09:20:38;;;;;;;8.37;7.57;;;18.60;69.90;;;-142.21;94.16;112049.66;5052658;28;20498;-70
2022/09/24 09:23:16;;;;;;;8.07;7.20;;;18.70;69.40;;;-142.21;94.08;112049.66;5043924;28;20521;-71
2022/09/24 09:25:52;;;;;;;8.60;7.20;;;18.60;69.30;;;-142.21;93.86;112049.66;5042374;28;20220;-70
2022/09/24 09:28:20;;;;;;;7.90;7.10;;;18.70;69.40;;;-142.21;93.23;112049.66;5052200;28;20558;-70
2022/09/24 09:31:07;;;;;;;10.80;7.13;;;18.70;69.00;;;-142.21;93.62;112049.66;5051564;28;20535;-71
2022/09/24 09:34:00;;;;;;;6.70;6.03;;;18.70;69.30;;;-142.21;93.24;112049.66;5051235;28;20190;-69
2022/09/24 09:36:52;;;;;;;8.70;6.87;;;18.80;69.20;;;-142.21;92.93;112049.66;5052546;28;20459;-71
2022/09/24 09:39:38;;;;;;;10.27;7.37;;;18.90;69.00;;;-142.21;92.83;112049.66;5052140;28;20194;-70
2022/09/24 09:42:26;;;;;;;10.77;6.93;;;19.00;68.90;;;-142.21;92.54;112049.66;5051887;28;20289;-70
2022/09/24 09:44:54;;;;;;;8.97;6.70;;;19.10;68.60;;;-142.21;92.33;112049.66;5048352;28;20445;-70
2022/09/24 09:47:40;;;;;;;8.97;6.67;;;19.20;68.60;;;-142.21;93.05;112049.66;5051213;28;20447;-70
2022/09/24 09:50:23;;;;;;;6.90;6.17;;;19.30;69.00;;;-142.21;91.84;112049.66;5051712;28;20661;-71
2022/09/24 09:52:51;;;;;;;5.97;5.47;;;19.30;68.30;;;-142.21;92.13;112049.66;5045603;28;20232;-70
2022/09/24 09:55:25;;;;;;;6.63;5.77;;;19.20;68.40;;;-142.21;92.83;112049.66;5051482;28;20229;-70
2022/09/24 09:57:54;;;;;;;6.63;5.63;;;19.30;68.70;;;-142.21;92.15;112049.66;5055074;28;20371;-70
2022/09/24 10:00:28;;;;;;;6.43;5.83;;;19.20;68.60;;;-142.21;92.91;112049.66;5051187;28;20276;-69
2022/09/24 10:02:57;;;;;;;6.33;5.17;;;19.20;69.00;;;-142.21;93.19;112049.66;5050909;28;20691;-70
2022/09/24 10:05:30;;;;;;;9.37;5.60;;;19.20;69.20;;;-142.21;93.14;112049.66;5047947;28;20201;-71
2022/09/24 10:07:58;;;;;;;9.27;5.77;;;19.20;69.10;;;-142.21;93.48;112049.66;5049088;28;20206;-69
2022/09/24 10:10:28;;;;;;;5.80;5.23;;;19.20;69.20;;;-142.21;93.47;112049.66;5044020;28;20531;-70
2022/09/24 10:13:08;;;;;;;16.77;6.63;;;19.30;69.20;;;-142.21;93.46;112049.66;5063581;28;20623;-71
2022/09/24 10:15:48;;;;;;;7.30;5.50;;;19.30;69.00;;;-142.21;93.21;112049.66;5048904;28;20498;-70
2022/09/24 10:18:21;;;;;;;9.93;5.57;;;19.20;68.90;;;-142.21;93.13;112049.66;5051253;28;20376;-70
2022/09/24 10:20:49;;;;;;;7.00;6.10;;;19.30;69.00;;;-142.21;93.07;112049.66;5051177;28;20194;-70